createdAt,value
2023-05-19T00:01:19.477Z,101602.13
2023-05-19T00:03:54.272Z,101601.81
2023-05-19T00:06:26.913Z,101597.75
2023-05-19T00:08:58.812Z,101596.38
2023-05-19T00:11:26.960Z,101594.44
2023-05-19T00:13:54.965Z,101598.16
2023-05-19T00:16:22.875Z,101595.97
2023-05-19T00:18:49.792Z,101591.34
2023-05-19T00:21:16.851Z,101590.78
2023-05-19T00:23:43.895Z,101589.41
2023-05-19T00:26:11.001Z,101591.75
2023-05-19T00:28:37.611Z,101590.63
2023-05-19T00:31:05.617Z,101587.63
2023-05-19T00:33:33.896Z,101589.97
2023-05-19T00:36:03.456Z,101592.88
2023-05-19T00:38:34.402Z,101603.81
2023-05-19T00:41:01.816Z,101595.47
2023-05-19T00:43:30.250Z,101594.09
2023-05-19T00:45:58.212Z,101589.78
2023-05-19T00:48:25.966Z,101599.09
2023-05-19T00:51:02.285Z,101599.84
2023-05-19T00:53:29.521Z,101604.13
2023-05-19T00:55:56.494Z,101603.88
2023-05-19T00:58:23.941Z,101600.66
2023-05-19T01:00:50.755Z,101604.38
2023-05-19T01:03:20.403Z,101601.59
2023-05-19T01:05:47.680Z,101590.09
2023-05-19T01:08:14.236Z,101590.91
2023-05-19T01:10:40.841Z,101582.88
2023-05-19T01:13:08.431Z,101582.31
2023-05-19T01:15:48.081Z,101596.16
2023-05-19T01:18:19.070Z,101600.38
2023-05-19T01:20:53.921Z,101613.72
2023-05-19T01:23:36.724Z,101616.88
2023-05-19T01:26:20.581Z,101615.25
2023-05-19T01:29:11.599Z,101602.38
2023-05-19T01:31:40.989Z,101591.94
2023-05-19T01:34:09.320Z,101584.38
2023-05-19T01:36:37.198Z,101593.91
2023-05-19T01:39:04.037Z,101595.09
2023-05-19T01:41:32.510Z,101590.22
2023-05-19T01:43:59.782Z,101603.03
2023-05-19T01:46:26.846Z,101599.53
2023-05-19T01:48:55.933Z,101599.19
2023-05-19T01:51:22.689Z,101599.41
2023-05-19T01:53:49.315Z,101595.13
2023-05-19T01:56:25.754Z,101592.13
2023-05-19T01:59:03.374Z,101597.72
2023-05-19T02:01:58.095Z,101606.44
2023-05-19T02:04:49.189Z,101606.66
2023-05-19T02:07:26.455Z,101601.56
2023-05-19T02:10:04.534Z,101605.50
2023-05-19T02:12:40.208Z,101604.69
2023-05-19T02:15:28.614Z,101613.19
2023-05-19T02:17:58.177Z,101611.47
2023-05-19T02:20:24.778Z,101610.41
2023-05-19T02:22:51.628Z,101604.47
2023-05-19T02:25:18.221Z,101603.34
2023-05-19T02:27:44.778Z,101602.78
2023-05-19T02:30:11.548Z,101602.19
2023-05-19T02:32:38.155Z,101604.28
2023-05-19T02:35:05.220Z,101602.69
2023-05-19T02:37:32.621Z,101595.47
2023-05-19T02:39:59.286Z,101591.66
2023-05-19T02:42:25.953Z,101602.00
2023-05-19T02:44:54.623Z,101597.13
2023-05-19T02:47:21.263Z,101605.38
2023-05-19T02:49:47.972Z,101606.88
2023-05-19T02:52:14.526Z,101614.53
2023-05-19T02:54:41.170Z,101606.19
2023-05-19T02:57:07.968Z,101599.09
2023-05-19T02:59:34.471Z,101608.50
2023-05-19T03:02:02.222Z,101614.31
2023-05-19T03:04:29.836Z,101619.63
2023-05-19T03:06:57.698Z,101621.25
2023-05-19T03:09:24.328Z,101618.13
2023-05-19T03:11:51.083Z,101617.91
2023-05-19T03:14:18.750Z,101619.44
2023-05-19T03:16:45.883Z,101630.56
2023-05-19T03:19:12.768Z,101614.75
2023-05-19T03:21:39.371Z,101617.44
2023-05-19T03:24:06.744Z,101604.56
2023-05-19T03:26:33.321Z,101610.38
2023-05-19T03:28:59.892Z,101598.91
2023-05-19T03:31:26.885Z,101608.16
2023-05-19T03:33:53.540Z,101605.34
2023-05-19T03:36:20.104Z,101607.66
2023-05-19T03:38:46.715Z,101609.75
2023-05-19T03:41:13.240Z,101604.66
2023-05-19T03:43:39.767Z,101603.03
2023-05-19T03:46:06.393Z,101599.41
2023-05-19T03:48:32.975Z,101604.19
2023-05-19T03:50:59.755Z,101599.91
2023-05-19T03:53:26.386Z,101594.56
2023-05-19T03:55:53.031Z,101595.47
2023-05-19T03:58:19.621Z,101596.75
2023-05-19T04:00:46.158Z,101595.56
2023-05-19T04:03:12.889Z,101585.41
2023-05-19T04:05:39.552Z,101588.28
2023-05-19T04:08:06.260Z,101582.81
2023-05-19T04:10:33.115Z,101586.53
2023-05-19T04:12:59.807Z,101574.72
2023-05-19T04:15:26.514Z,101571.22
2023-05-19T04:17:53.058Z,101569.25
2023-05-19T04:20:19.693Z,101569.47
2023-05-19T04:22:46.248Z,101569.94
2023-05-19T04:25:13.216Z,101567.25
2023-05-19T04:27:39.738Z,101564.38
2023-05-19T04:30:06.791Z,101566.47
2023-05-19T04:32:33.456Z,101571.22
2023-05-19T04:35:00.050Z,101579.41
2023-05-19T04:37:26.727Z,101589.28
2023-05-19T04:39:54.262Z,101589.50
2023-05-19T04:42:20.949Z,101587.06
2023-05-19T04:44:49.382Z,101587.06
2023-05-19T04:47:16.174Z,101595.06
2023-05-19T04:49:42.995Z,101599.34
2023-05-19T04:52:11.066Z,101598.53
2023-05-19T04:54:38.774Z,101601.53
2023-05-19T04:57:05.971Z,101598.88
2023-05-19T04:59:32.702Z,101605.03
2023-05-19T05:01:59.267Z,101598.44
2023-05-19T05:04:26.010Z,101595.53
2023-05-19T05:06:52.566Z,101596.38
2023-05-19T05:09:20.075Z,101599.16
2023-05-19T05:11:47.071Z,101595.00
2023-05-19T05:14:13.928Z,101598.22
2023-05-19T05:16:40.910Z,101597.78
2023-05-19T05:19:07.932Z,101610.66
2023-05-19T05:21:34.945Z,101618.19
2023-05-19T05:24:01.806Z,101624.09
2023-05-19T05:26:33.311Z,101621.78
2023-05-19T05:28:59.923Z,101622.59
2023-05-19T05:31:26.535Z,101625.03
2023-05-19T05:33:53.307Z,101623.75
2023-05-19T05:36:20.107Z,101615.53
2023-05-19T05:38:46.691Z,101620.63
2023-05-19T05:41:13.279Z,101621.00
2023-05-19T05:43:39.827Z,101619.72
2023-05-19T05:46:06.423Z,101632.94
2023-05-19T05:48:33.344Z,101627.16
2023-05-19T05:51:00.204Z,101608.22
2023-05-19T05:53:30.955Z,101612.31
2023-05-19T05:55:58.034Z,101610.81
2023-05-19T05:58:24.657Z,101619.44
2023-05-19T06:00:53.454Z,101628.00
2023-05-19T06:03:24.303Z,101626.13
2023-05-19T06:05:51.216Z,101631.81
2023-05-19T06:08:17.970Z,101634.03
2023-05-19T06:10:47.088Z,101631.72
2023-05-19T06:13:16.297Z,101631.25
2023-05-19T06:15:42.859Z,101634.84
2023-05-19T06:18:09.601Z,101632.53
2023-05-19T06:20:36.382Z,101631.56
2023-05-19T06:23:03.063Z,101620.22
2023-05-19T06:25:29.642Z,101630.19
2023-05-19T06:27:57.385Z,101626.81
2023-05-19T06:30:24.125Z,101632.25
2023-05-19T06:32:50.879Z,101631.34
2023-05-19T06:35:17.594Z,101632.47
2023-05-19T06:37:44.167Z,101635.25
2023-05-19T06:40:11.614Z,101638.25
2023-05-19T06:42:38.274Z,101628.50
2023-05-19T06:45:05.200Z,101632.09
2023-05-19T06:47:31.773Z,101625.47
2023-05-19T06:49:58.336Z,101622.91
2023-05-19T06:52:25.421Z,101614.72
2023-05-19T06:54:51.937Z,101616.47
2023-05-19T06:57:18.518Z,101607.72
2023-05-19T06:59:46.701Z,101617.25
2023-05-19T07:02:13.518Z,101610.47
2023-05-19T07:04:40.274Z,101606.84
2023-05-19T07:07:07.091Z,101602.19
2023-05-19T07:09:33.729Z,101602.34
2023-05-19T07:12:01.366Z,101598.47
2023-05-19T07:14:28.008Z,101599.44
2023-05-19T07:16:54.857Z,101597.97
2023-05-19T07:19:21.582Z,101602.69
2023-05-19T07:21:48.344Z,101611.13
2023-05-19T07:24:14.887Z,101613.97
2023-05-19T07:26:42.666Z,101623.75
2023-05-19T07:29:09.271Z,101610.81
2023-05-19T07:31:35.964Z,101623.53
2023-05-19T07:34:03.004Z,101624.50
2023-05-19T07:36:29.634Z,101621.94
2023-05-19T07:38:56.187Z,101633.59
2023-05-19T07:41:23.073Z,101622.19
2023-05-19T07:43:49.994Z,101625.28
2023-05-19T07:46:16.719Z,101637.19
2023-05-19T07:48:43.449Z,101627.88
2023-05-19T07:51:11.400Z,101633.34
2023-05-19T07:53:38.016Z,101635.34
2023-05-19T07:56:04.890Z,101640.03
2023-05-19T07:58:31.490Z,101646.03
2023-05-19T08:00:58.965Z,101642.09
2023-05-19T08:03:26.932Z,101640.00
2023-05-19T08:05:53.565Z,101641.97
2023-05-19T08:08:20.096Z,101631.09
2023-05-19T08:10:46.728Z,101626.63
2023-05-19T08:13:13.326Z,101631.81
2023-05-19T08:15:39.976Z,101635.66
2023-05-19T08:18:06.623Z,101625.81
2023-05-19T08:20:34.210Z,101631.31
2023-05-19T08:23:01.157Z,101632.75
2023-05-19T08:25:27.676Z,101638.53
2023-05-19T08:27:54.433Z,101641.59
2023-05-19T08:30:21.041Z,101637.09
2023-05-19T08:32:48.791Z,101636.91
2023-05-19T08:35:15.679Z,101632.94
2023-05-19T08:37:42.231Z,101633.78
2023-05-19T08:40:16.318Z,101630.06
2023-05-19T08:42:43.578Z,101635.19
2023-05-19T08:45:10.512Z,101629.28
2023-05-19T08:47:37.236Z,101629.25
2023-05-19T08:50:10.028Z,101628.47
2023-05-19T08:53:15.095Z,101630.66
2023-05-19T08:55:54.869Z,101630.91
2023-05-19T08:58:22.069Z,101634.97
2023-05-19T09:03:23.266Z,101637.66
2023-05-19T09:05:50.899Z,101629.84
2023-05-19T09:08:18.435Z,101638.19
2023-05-19T09:10:45.280Z,101628.75
2023-05-19T09:13:11.914Z,101626.88
2023-05-19T09:15:39.945Z,101626.31
2023-05-19T09:18:11.765Z,101633.88
2023-05-19T09:20:41.542Z,101632.25
2023-05-19T09:23:13.819Z,101632.53
2023-05-19T09:26:03.941Z,101630.38
2023-05-19T09:28:33.343Z,101630.63
2023-05-19T09:31:04.971Z,101629.28
2023-05-19T09:33:37.128Z,101627.13
2023-05-19T09:36:06.212Z,101626.56
2023-05-19T09:38:33.257Z,101629.00
2023-05-19T09:41:00.816Z,101631.41
2023-05-19T09:43:29.143Z,101636.53
2023-05-19T09:46:04.891Z,101631.97
2023-05-19T09:48:31.891Z,101630.59
2023-05-19T09:51:00.631Z,101634.09
2023-05-19T09:53:30.228Z,101637.63
2023-05-19T09:56:00.218Z,101643.25
2023-05-19T09:58:27.127Z,101640.56
2023-05-19T10:00:54.877Z,101643.25
2023-05-19T10:03:26.077Z,101644.06
2023-05-19T10:05:53.492Z,101649.47
2023-05-19T10:08:20.473Z,101644.34
2023-05-19T10:10:48.346Z,101653.25
2023-05-19T10:13:16.474Z,101648.13
2023-05-19T10:15:57.074Z,101645.44
2023-05-19T10:18:26.885Z,101647.06
2023-05-19T10:20:54.314Z,101650.53
2023-05-19T10:23:21.161Z,101651.09
2023-05-19T10:25:49.380Z,101638.94
2023-05-19T10:28:18.878Z,101637.59
2023-05-19T10:30:49.810Z,101640.28
2023-05-19T10:33:19.312Z,101638.41
2023-05-19T10:36:09.236Z,101639.72
2023-05-19T10:38:48.298Z,101642.94
2023-05-19T10:41:23.772Z,101645.38
2023-05-19T10:44:09.529Z,101642.09
2023-05-19T10:46:36.104Z,101636.44
2023-05-19T10:49:02.823Z,101638.56
2023-05-19T10:51:32.610Z,101640.66
2023-05-19T10:54:02.983Z,101635.50
2023-05-19T10:56:36.283Z,101637.66
2023-05-19T10:59:03.825Z,101630.66
2023-05-19T11:01:33.283Z,101626.84
2023-05-19T11:04:09.180Z,101629.25
2023-05-19T11:06:36.757Z,101635.47
2023-05-19T11:09:10.319Z,101635.19
2023-05-19T11:11:49.143Z,101630.06
2023-05-19T11:14:18.795Z,101631.91
2023-05-19T11:16:50.017Z,101635.94
2023-05-19T11:19:30.785Z,101638.06
2023-05-19T11:22:09.353Z,101632.56
2023-05-19T11:24:50.599Z,101634.94
2023-05-19T11:27:31.818Z,101634.28
2023-05-19T11:30:06.768Z,101636.09
2023-05-19T11:32:34.885Z,101626.00
2023-05-19T11:35:02.476Z,101638.88
2023-05-19T11:37:32.579Z,101636.91
2023-05-19T11:40:02.044Z,101640.38
2023-05-19T11:42:28.670Z,101635.41
2023-05-19T11:44:56.480Z,101648.91
2023-05-19T11:47:23.190Z,101642.91
2023-05-19T11:49:51.980Z,101644.78
2023-05-19T11:52:22.333Z,101647.69
2023-05-19T11:54:49.097Z,101651.97
2023-05-19T11:57:15.898Z,101652.16
2023-05-19T11:59:45.786Z,101646.63
2023-05-19T12:02:24.826Z,101651.13
2023-05-19T12:04:52.364Z,101639.91
2023-05-19T12:07:20.635Z,101641.94
2023-05-19T12:09:47.473Z,101646.91
2023-05-19T12:12:19.383Z,101640.25
2023-05-19T12:14:51.768Z,101640.63
2023-05-19T12:17:20.842Z,101639.13
2023-05-19T12:19:48.744Z,101640.59
2023-05-19T12:22:16.939Z,101641.53
2023-05-19T12:24:44.529Z,101640.56
2023-05-19T12:27:13.724Z,101637.78
2023-05-19T12:29:40.771Z,101634.47
2023-05-19T12:32:08.294Z,101649.88
2023-05-19T12:34:38.912Z,101636.00
2023-05-19T12:37:06.263Z,101634.88
2023-05-19T12:39:33.804Z,101635.69
2023-05-19T12:42:10.936Z,101633.50
2023-05-19T12:44:48.196Z,101626.38
2023-05-19T12:47:19.922Z,101630.31
2023-05-19T12:50:04.804Z,101618.41
2023-05-19T12:52:35.304Z,101623.56
2023-05-19T12:55:07.258Z,101620.28
2023-05-19T12:57:41.747Z,101624.78
2023-05-19T13:00:17.800Z,101618.28
2023-05-19T13:02:56.843Z,101615.06
2023-05-19T13:05:24.256Z,101616.47
2023-05-19T13:08:18.682Z,101605.38
2023-05-19T13:10:46.552Z,101594.88
2023-05-19T13:13:13.341Z,101586.19
2023-05-19T13:15:44.507Z,101586.31
2023-05-19T13:18:12.826Z,101593.53
2023-05-19T13:20:41.490Z,101591.22
2023-05-19T13:23:10.555Z,101587.22
2023-05-19T13:25:37.512Z,101589.16
2023-05-19T13:28:08.025Z,101587.81
2023-05-19T13:30:36.357Z,101593.56
2023-05-19T13:33:03.350Z,101584.09
2023-05-19T13:35:30.762Z,101590.41
2023-05-19T13:37:57.547Z,101576.03
2023-05-19T13:40:24.225Z,101573.22
2023-05-19T13:42:50.829Z,101582.63
2023-05-19T13:45:18.406Z,101579.88
2023-05-19T13:47:45.001Z,101579.81
2023-05-19T13:50:12.294Z,101582.72
2023-05-19T13:52:38.943Z,101578.50
2023-05-19T13:55:07.175Z,101578.75
2023-05-19T13:57:34.030Z,101580.31
2023-05-19T14:00:03.364Z,101578.31
2023-05-19T14:02:30.893Z,101574.59
2023-05-19T14:04:57.772Z,101578.47
2023-05-19T14:07:25.582Z,101563.03
2023-05-19T14:09:52.502Z,101569.50
2023-05-19T14:12:20.239Z,101562.38
2023-05-19T14:14:50.169Z,101562.28
2023-05-19T14:17:16.848Z,101558.28
2023-05-19T14:19:43.408Z,101558.81
2023-05-19T14:22:10.176Z,101556.75
2023-05-19T14:24:37.241Z,101556.25
2023-05-19T14:27:04.013Z,101557.97
2023-05-19T14:29:31.268Z,101559.66
2023-05-19T14:31:58.084Z,101559.91
2023-05-19T14:34:24.719Z,101558.78
2023-05-19T14:36:51.396Z,101551.94
2023-05-19T14:39:17.965Z,101556.53
2023-05-19T14:41:44.486Z,101551.22
2023-05-19T14:44:11.107Z,101553.63
2023-05-19T14:46:37.723Z,101548.50
2023-05-19T14:49:06.386Z,101550.47
2023-05-19T14:51:33.035Z,101552.41
2023-05-19T14:54:00.613Z,101544.59
2023-05-19T14:56:27.249Z,101546.25
2023-05-19T14:58:53.921Z,101544.19
2023-05-19T15:01:20.594Z,101543.41
2023-05-19T15:03:47.335Z,101547.78
2023-05-19T15:06:13.957Z,101540.06
2023-05-19T15:08:41.489Z,101546.69
2023-05-19T15:11:08.207Z,101550.13
2023-05-19T15:13:34.766Z,101547.13
2023-05-19T15:16:16.380Z,101553.44
2023-05-19T15:18:44.583Z,101550.13
2023-05-19T15:21:11.301Z,101548.72
2023-05-19T15:23:37.834Z,101554.16
2023-05-19T15:26:04.516Z,101543.84
2023-05-19T15:28:31.065Z,101551.28
2023-05-19T15:30:57.661Z,101558.78
2023-05-19T15:33:24.223Z,101558.66
2023-05-19T15:35:52.239Z,101552.56
2023-05-19T15:38:19.538Z,101552.75
2023-05-19T15:40:46.882Z,101555.47
2023-05-19T15:43:13.892Z,101549.03
2023-05-19T15:45:40.959Z,101548.41
2023-05-19T15:48:07.776Z,101549.88
2023-05-19T15:50:34.680Z,101547.34
2023-05-19T15:53:01.553Z,101540.31
2023-05-19T15:55:28.077Z,101546.97
2023-05-19T15:57:54.658Z,101552.78
2023-05-19T16:00:21.399Z,101549.75
2023-05-19T16:02:48.080Z,101553.09
2023-05-19T16:05:14.765Z,101544.53
2023-05-19T16:07:42.298Z,101553.44
2023-05-19T16:10:09.301Z,101544.94
2023-05-19T16:12:36.751Z,101549.41
2023-05-19T16:15:03.898Z,101565.91
2023-05-19T16:17:30.686Z,101558.56
2023-05-19T16:19:57.515Z,101556.78
2023-05-19T16:22:25.041Z,101559.78
2023-05-19T16:24:52.338Z,101563.19
2023-05-19T16:27:19.215Z,101571.59
2023-05-19T16:29:45.949Z,101583.09
2023-05-19T16:32:13.118Z,101566.56
2023-05-19T16:34:39.878Z,101581.88
2023-05-19T16:37:06.462Z,101578.69
2023-05-19T16:39:33.055Z,101586.41
2023-05-19T16:41:59.587Z,101582.69
2023-05-19T16:44:26.343Z,101579.56
2023-05-19T16:46:52.895Z,101575.81
2023-05-19T16:49:19.487Z,101593.75
2023-05-19T16:51:47.559Z,101590.53
2023-05-19T16:54:15.517Z,101596.81
2023-05-19T16:56:42.052Z,101591.44
2023-05-19T16:59:09.408Z,101591.81
2023-05-19T17:01:36.133Z,101582.59
2023-05-19T17:04:03.016Z,101578.84
2023-05-19T17:06:29.626Z,101585.06
2023-05-19T17:08:56.164Z,101581.06
2023-05-19T17:11:23.064Z,101583.50
2023-05-19T17:13:49.582Z,101588.34
2023-05-19T17:16:16.310Z,101585.41
2023-05-19T17:18:43.752Z,101581.16
2023-05-19T17:21:10.648Z,101586.84
2023-05-19T17:23:37.964Z,101591.97
2023-05-19T17:26:04.841Z,101593.56
2023-05-19T17:28:31.745Z,101601.13
2023-05-19T17:30:58.435Z,101601.13
2023-05-19T17:33:25.137Z,101603.81
2023-05-19T17:35:51.811Z,101600.59
2023-05-19T17:38:18.338Z,101606.59
2023-05-19T17:40:44.879Z,101601.75
2023-05-19T17:43:11.478Z,101598.59
2023-05-19T17:45:38.020Z,101607.56
2023-05-19T17:48:05.214Z,101604.69
2023-05-19T17:50:32.247Z,101605.53
2023-05-19T17:52:59.291Z,101615.03
2023-05-19T17:55:29.968Z,101615.38
2023-05-19T17:57:57.567Z,101614.09
2023-05-19T18:00:25.300Z,101613.31
2023-05-19T18:02:52.746Z,101626.06
2023-05-19T18:05:19.964Z,101619.38
2023-05-19T18:07:47.081Z,101627.53
2023-05-19T18:10:15.533Z,101632.69
2023-05-19T18:12:42.235Z,101633.25
2023-05-19T18:15:09.037Z,101635.41
2023-05-19T18:17:35.752Z,101628.44
2023-05-19T18:20:02.512Z,101636.28
2023-05-19T18:22:29.047Z,101638.72
2023-05-19T18:24:56.252Z,101639.78
2023-05-19T18:27:22.753Z,101645.19
2023-05-19T18:29:49.312Z,101643.56
2023-05-19T18:32:17.699Z,101655.44
2023-05-19T18:34:44.416Z,101651.09
2023-05-19T18:37:10.976Z,101655.69
2023-05-19T18:39:37.597Z,101661.91
2023-05-19T18:42:04.320Z,101671.56
2023-05-19T18:44:31.127Z,101670.44
2023-05-19T18:46:57.721Z,101668.28
2023-05-19T18:49:25.081Z,101676.38
2023-05-19T18:51:51.911Z,101675.00
2023-05-19T18:54:19.490Z,101676.31
2023-05-19T18:56:46.129Z,101685.97
2023-05-19T18:59:12.742Z,101692.94
2023-05-19T19:01:39.455Z,101689.16
2023-05-19T19:04:06.288Z,101691.56
2023-05-19T19:06:32.813Z,101701.00
2023-05-19T19:08:59.372Z,101697.97
2023-05-19T19:11:26.370Z,101708.44
2023-05-19T19:13:55.665Z,101706.53
2023-05-19T19:16:22.757Z,101714.53
2023-05-19T19:18:49.517Z,101712.63
2023-05-19T19:21:16.176Z,101714.75
2023-05-19T19:23:42.749Z,101706.38
2023-05-19T19:26:09.588Z,101706.31
2023-05-19T19:28:36.594Z,101705.47
2023-05-19T19:31:03.338Z,101706.78
2023-05-19T19:33:30.055Z,101711.56
2023-05-19T19:35:56.723Z,101712.84
2023-05-19T19:38:23.270Z,101719.81
2023-05-19T19:40:52.651Z,101717.09
2023-05-19T19:43:19.411Z,101714.38
2023-05-19T19:45:46.207Z,101725.63
2023-05-19T19:48:12.926Z,101718.34
2023-05-19T19:50:39.496Z,101727.13
2023-05-19T19:53:06.309Z,101728.19
2023-05-19T19:55:32.892Z,101730.03
2023-05-19T19:57:59.416Z,101732.41
2023-05-19T20:00:26.044Z,101735.03
2023-05-19T20:03:04.341Z,101739.31
2023-05-19T20:05:32.321Z,101746.47
2023-05-19T20:07:59.009Z,101737.56
2023-05-19T20:10:25.643Z,101744.25
2023-05-19T20:12:52.428Z,101749.63
2023-05-19T20:15:19.398Z,101751.44
2023-05-19T20:17:46.059Z,101763.78
2023-05-19T20:20:13.086Z,101758.13
2023-05-19T20:22:39.837Z,101759.69
2023-05-19T20:25:07.028Z,101764.50
2023-05-19T20:27:33.665Z,101763.13
2023-05-19T20:30:00.419Z,101771.38
2023-05-19T20:32:27.118Z,101767.56
2023-05-19T20:34:53.658Z,101766.13
2023-05-19T20:37:21.659Z,101765.81
2023-05-19T20:39:48.222Z,101759.00
2023-05-19T20:42:14.991Z,101764.91
2023-05-19T20:44:41.624Z,101769.69
2023-05-19T20:47:08.788Z,101769.84
2023-05-19T20:49:35.586Z,101780.78
2023-05-19T20:52:02.250Z,101775.31
2023-05-19T20:54:28.922Z,101785.16
2023-05-19T20:56:56.119Z,101786.13
2023-05-19T20:59:22.729Z,101786.00
2023-05-19T21:01:49.362Z,101790.47
2023-05-19T21:04:16.069Z,101791.13
2023-05-19T21:06:42.673Z,101787.59
2023-05-19T21:09:10.491Z,101783.44
2023-05-19T21:11:37.035Z,101781.41
2023-05-19T21:14:06.213Z,101783.94
2023-05-19T21:16:33.978Z,101793.66
2023-05-19T21:19:01.924Z,101799.97
2023-05-19T21:21:28.672Z,101806.78
2023-05-19T21:23:55.339Z,101804.94
2023-05-19T21:26:22.165Z,101812.63
2023-05-19T21:28:49.017Z,101807.66
2023-05-19T21:31:15.661Z,101812.34
2023-05-19T21:33:42.381Z,101818.91
2023-05-19T21:36:08.921Z,101811.59
2023-05-19T21:38:35.566Z,101817.56
2023-05-19T21:41:03.275Z,101816.06
2023-05-19T21:43:29.872Z,101812.72
2023-05-19T21:45:56.601Z,101804.25
2023-05-19T21:48:23.367Z,101813.69
2023-05-19T21:50:54.573Z,101813.34
2023-05-19T21:53:21.604Z,101816.94
2023-05-19T21:55:48.391Z,101816.25
2023-05-19T21:58:14.969Z,101821.16
2023-05-19T22:00:41.698Z,101823.69
2023-05-19T22:03:08.348Z,101829.75
2023-05-19T22:05:35.581Z,101824.75
2023-05-19T22:08:02.175Z,101828.34
2023-05-19T22:10:28.747Z,101829.28
2023-05-19T22:12:55.471Z,101819.97
2023-05-19T22:15:22.099Z,101827.41
2023-05-19T22:17:48.701Z,101821.34
2023-05-19T22:20:15.590Z,101820.44
2023-05-19T22:22:42.104Z,101822.41
2023-05-19T22:25:08.787Z,101818.56
2023-05-19T22:27:35.370Z,101821.91
2023-05-19T22:30:01.911Z,101809.72
2023-05-19T22:32:28.912Z,101816.56
2023-05-19T22:34:55.573Z,101813.75
2023-05-19T22:37:23.037Z,101822.88
2023-05-19T22:39:49.658Z,101820.91
2023-05-19T22:42:16.177Z,101826.69
2023-05-19T22:44:43.317Z,101821.22
2023-05-19T22:47:14.065Z,101831.97
2023-05-19T22:49:41.471Z,101828.34
2023-05-19T22:52:10.080Z,101835.41
2023-05-19T22:54:37.003Z,101833.19
2023-05-19T22:57:03.736Z,101839.88
2023-05-19T22:59:30.578Z,101831.72
2023-05-19T23:01:57.131Z,101833.44
2023-05-19T23:04:23.747Z,101842.13
2023-05-19T23:06:50.624Z,101839.88
2023-05-19T23:09:18.017Z,101832.56
2023-05-19T23:11:45.232Z,101836.91
2023-05-19T23:14:11.805Z,101836.22
2023-05-19T23:16:38.559Z,101840.34
2023-05-19T23:19:05.318Z,101835.09
2023-05-19T23:21:32.895Z,101843.16
2023-05-19T23:24:00.103Z,101844.06
2023-05-19T23:26:26.989Z,101837.97
2023-05-19T23:28:53.715Z,101842.69
2023-05-19T23:31:20.352Z,101845.22
2023-05-19T23:33:47.003Z,101840.75
2023-05-19T23:36:13.710Z,101844.06
2023-05-19T23:38:40.364Z,101845.78
2023-05-19T23:41:07.013Z,101842.13
2023-05-19T23:43:33.727Z,101837.91
2023-05-19T23:46:01.140Z,101843.03
2023-05-19T23:48:31.504Z,101842.25
2023-05-19T23:50:58.653Z,101838.06
2023-05-19T23:53:25.636Z,101847.28
2023-05-19T23:55:52.199Z,101845.84
2023-05-19T23:58:18.911Z,101839.56
